sensor_id;sensor_type;location;lat;lon;timestamp;temperature;humidity
8778;DHT22;4425;50.872;4.712;2023-06-24T00:00:33;20.50;99.90
8778;DHT22;4425;50.872;4.712;2023-06-24T00:03:02;20.40;99.90
8778;DHT22;4425;50.872;4.712;2023-06-24T00:05:30;20.40;99.90
8778;DHT22;4425;50.872;4.712;2023-06-24T00:07:57;20.30;99.90
8778;DHT22;4425;50.872;4.712;2023-06-24T00:10:28;20.40;99.90
8778;DHT22;4425;50.872;4.712;2023-06-24T00:12:56;20.30;99.90
8778;DHT22;4425;50.872;4.712;2023-06-24T00:15:26;20.30;99.90
8778;DHT22;4425;50.872;4.712;2023-06-24T00:17:54;20.30;99.90
8778;DHT22;4425;50.872;4.712;2023-06-24T00:20:31;20.20;99.90
8778;DHT22;4425;50.872;4.712;2023-06-24T00:22:58;20.20;99.90
8778;DHT22;4425;50.872;4.712;2023-06-24T00:25:24;20.10;99.90
8778;DHT22;4425;50.872;4.712;2023-06-24T00:27:51;20.10;99.90
8778;DHT22;4425;50.872;4.712;2023-06-24T00:30:20;20.10;99.90
8778;DHT22;4425;50.872;4.712;2023-06-24T00:32:46;20.10;99.90
8778;DHT22;4425;50.872;4.712;2023-06-24T00:35:13;20.00;99.90
8778;DHT22;4425;50.872;4.712;2023-06-24T00:37:40;20.00;99.90
8778;DHT22;4425;50.872;4.712;2023-06-24T00:40:12;20.00;99.90
8778;DHT22;4425;50.872;4.712;2023-06-24T00:42:41;19.90;99.90
8778;DHT22;4425;50.872;4.712;2023-06-24T00:45:09;19.90;99.90
8778;DHT22;4425;50.872;4.712;2023-06-24T00:47:38;19.80;99.90
8778;DHT22;4425;50.872;4.712;2023-06-24T00:50:06;19.80;99.90
8778;DHT22;4425;50.872;4.712;2023-06-24T00:52:33;19.70;99.90
8778;DHT22;4425;50.872;4.712;2023-06-24T00:55:03;19.70;99.90
8778;DHT22;4425;50.872;4.712;2023-06-24T00:57:30;19.60;99.90
8778;DHT22;4425;50.872;4.712;2023-06-24T00:59:57;19.60;99.90
8778;DHT22;4425;50.872;4.712;2023-06-24T01:02:25;19.60;99.90
8778;DHT22;4425;50.872;4.712;2023-06-24T01:04:54;19.60;99.90
8778;DHT22;4425;50.872;4.712;2023-06-24T01:07:22;19.60;99.90
8778;DHT22;4425;50.872;4.712;2023-06-24T01:09:49;19.60;99.90
8778;DHT22;4425;50.872;4.712;2023-06-24T01:12:16;19.40;99.90
8778;DHT22;4425;50.872;4.712;2023-06-24T01:14:43;19.50;99.90
8778;DHT22;4425;50.872;4.712;2023-06-24T01:17:14;19.40;99.90
8778;DHT22;4425;50.872;4.712;2023-06-24T01:20:02;19.40;99.90
8778;DHT22;4425;50.872;4.712;2023-06-24T01:23:17;19.40;99.90
8778;DHT22;4425;50.872;4.712;2023-06-24T01:26:04;19.30;99.90
8778;DHT22;4425;50.872;4.712;2023-06-24T01:28:57;19.20;99.90
8778;DHT22;4425;50.872;4.712;2023-06-24T01:31:35;19.10;99.90
8778;DHT22;4425;50.872;4.712;2023-06-24T01:34:09;19.00;99.90
8778;DHT22;4425;50.872;4.712;2023-06-24T01:36:40;19.00;99.90
8778;DHT22;4425;50.872;4.712;2023-06-24T01:39:11;18.90;99.90
8778;DHT22;4425;50.872;4.712;2023-06-24T01:41:41;18.90;99.90
8778;DHT22;4425;50.872;4.712;2023-06-24T01:44:10;19.00;99.90
8778;DHT22;4425;50.872;4.712;2023-06-24T01:46:41;19.00;99.90
8778;DHT22;4425;50.872;4.712;2023-06-24T01:49:12;18.90;99.90
8778;DHT22;4425;50.872;4.712;2023-06-24T01:51:40;18.90;99.90
8778;DHT22;4425;50.872;4.712;2023-06-24T01:54:14;18.90;99.90
8778;DHT22;4425;50.872;4.712;2023-06-24T01:56:42;18.80;99.90
8778;DHT22;4425;50.872;4.712;2023-06-24T01:59:10;18.70;99.90
8778;DHT22;4425;50.872;4.712;2023-06-24T02:01:38;18.60;99.90
8778;DHT22;4425;50.872;4.712;2023-06-24T02:04:08;18.50;99.90
8778;DHT22;4425;50.872;4.712;2023-06-24T02:06:36;18.40;99.90
8778;DHT22;4425;50.872;4.712;2023-06-24T02:09:05;18.40;99.90
8778;DHT22;4425;50.872;4.712;2023-06-24T02:11:33;18.30;99.90
8778;DHT22;4425;50.872;4.712;2023-06-24T02:14:01;18.30;99.90
8778;DHT22;4425;50.872;4.712;2023-06-24T02:16:29;18.10;99.90
8778;DHT22;4425;50.872;4.712;2023-06-24T02:18:57;18.00;99.90
8778;DHT22;4425;50.872;4.712;2023-06-24T02:21:26;18.00;99.90
8778;DHT22;4425;50.872;4.712;2023-06-24T02:23:55;17.90;99.90
8778;DHT22;4425;50.872;4.712;2023-06-24T02:26:23;17.90;99.90
8778;DHT22;4425;50.872;4.712;2023-06-24T02:28:52;17.70;99.90
8778;DHT22;4425;50.872;4.712;2023-06-24T02:31:19;17.80;99.90
8778;DHT22;4425;50.872;4.712;2023-06-24T02:33:46;17.80;99.90
8778;DHT22;4425;50.872;4.712;2023-06-24T02:36:13;17.70;99.90
8778;DHT22;4425;50.872;4.712;2023-06-24T02:38:42;17.60;99.90
8778;DHT22;4425;50.872;4.712;2023-06-24T02:41:09;17.60;99.90
8778;DHT22;4425;50.872;4.712;2023-06-24T02:43:35;17.50;99.90
8778;DHT22;4425;50.872;4.712;2023-06-24T02:46:03;17.40;99.90
8778;DHT22;4425;50.872;4.712;2023-06-24T02:48:33;17.40;99.90
8778;DHT22;4425;50.872;4.712;2023-06-24T02:51:01;17.30;99.90
8778;DHT22;4425;50.872;4.712;2023-06-24T02:53:29;17.30;99.90
8778;DHT22;4425;50.872;4.712;2023-06-24T02:55:57;17.20;99.90
8778;DHT22;4425;50.872;4.712;2023-06-24T02:58:25;17.10;99.90
8778;DHT22;4425;50.872;4.712;2023-06-24T03:00:57;17.10;99.90
8778;DHT22;4425;50.872;4.712;2023-06-24T03:03:25;17.10;99.90
8778;DHT22;4425;50.872;4.712;2023-06-24T03:05:53;17.10;99.90
8778;DHT22;4425;50.872;4.712;2023-06-24T03:08:22;17.10;99.90
8778;DHT22;4425;50.872;4.712;2023-06-24T03:10:49;17.00;99.90
8778;DHT22;4425;50.872;4.712;2023-06-24T03:13:18;17.00;99.90
8778;DHT22;4425;50.872;4.712;2023-06-24T03:15:45;17.00;99.90
8778;DHT22;4425;50.872;4.712;2023-06-24T03:18:12;16.90;99.90
8778;DHT22;4425;50.872;4.712;2023-06-24T03:20:39;16.90;99.90
8778;DHT22;4425;50.872;4.712;2023-06-24T03:23:06;16.90;99.90
8778;DHT22;4425;50.872;4.712;2023-06-24T03:25:33;16.80;99.90
8778;DHT22;4425;50.872;4.712;2023-06-24T03:28:01;16.80;99.90
8778;DHT22;4425;50.872;4.712;2023-06-24T03:30:30;16.80;99.90
8778;DHT22;4425;50.872;4.712;2023-06-24T03:32:57;16.80;99.90
8778;DHT22;4425;50.872;4.712;2023-06-24T03:35:24;16.70;99.90
8778;DHT22;4425;50.872;4.712;2023-06-24T03:37:51;16.70;99.90
8778;DHT22;4425;50.872;4.712;2023-06-24T03:40:18;16.70;99.90
8778;DHT22;4425;50.872;4.712;2023-06-24T03:42:44;16.70;99.90
8778;DHT22;4425;50.872;4.712;2023-06-24T03:45:11;16.60;99.90
8778;DHT22;4425;50.872;4.712;2023-06-24T03:47:40;16.60;99.90
8778;DHT22;4425;50.872;4.712;2023-06-24T03:50:07;16.60;99.90
8778;DHT22;4425;50.872;4.712;2023-06-24T03:52:34;16.60;99.90
8778;DHT22;4425;50.872;4.712;2023-06-24T03:55:01;16.60;99.90
8778;DHT22;4425;50.872;4.712;2023-06-24T03:57:29;16.60;99.90
8778;DHT22;4425;50.872;4.712;2023-06-24T03:59:56;16.60;99.90
8778;DHT22;4425;50.872;4.712;2023-06-24T04:02:23;16.60;99.90
8778;DHT22;4425;50.872;4.712;2023-06-24T04:04:53;16.60;99.90
8778;DHT22;4425;50.872;4.712;2023-06-24T04:07:21;16.60;99.90
8778;DHT22;4425;50.872;4.712;2023-06-24T04:09:54;16.60;99.90
8778;DHT22;4425;50.872;4.712;2023-06-24T04:12:21;16.60;99.90
8778;DHT22;4425;50.872;4.712;2023-06-24T04:14:48;16.60;99.90
8778;DHT22;4425;50.872;4.712;2023-06-24T04:17:15;16.60;99.90
8778;DHT22;4425;50.872;4.712;2023-06-24T04:19:42;16.60;99.90
8778;DHT22;4425;50.872;4.712;2023-06-24T04:22:11;16.60;99.90
8778;DHT22;4425;50.872;4.712;2023-06-24T04:24:38;16.60;99.90
8778;DHT22;4425;50.872;4.712;2023-06-24T04:27:07;16.60;99.90
8778;DHT22;4425;50.872;4.712;2023-06-24T04:29:34;16.60;99.90
8778;DHT22;4425;50.872;4.712;2023-06-24T04:32:01;16.60;99.90
8778;DHT22;4425;50.872;4.712;2023-06-24T04:34:27;16.60;99.90
8778;DHT22;4425;50.872;4.712;2023-06-24T04:36:54;16.60;99.90
8778;DHT22;4425;50.872;4.712;2023-06-24T04:39:23;16.70;99.90
8778;DHT22;4425;50.872;4.712;2023-06-24T04:41:50;16.70;99.90
8778;DHT22;4425;50.872;4.712;2023-06-24T04:44:16;16.70;99.90
8778;DHT22;4425;50.872;4.712;2023-06-24T04:46:45;16.70;99.90
8778;DHT22;4425;50.872;4.712;2023-06-24T04:49:12;16.80;99.90
8778;DHT22;4425;50.872;4.712;2023-06-24T04:51:39;16.80;99.90
8778;DHT22;4425;50.872;4.712;2023-06-24T04:54:07;16.80;99.90
8778;DHT22;4425;50.872;4.712;2023-06-24T04:56:36;16.90;99.90
8778;DHT22;4425;50.872;4.712;2023-06-24T04:59:02;16.90;99.90
8778;DHT22;4425;50.872;4.712;2023-06-24T05:01:29;17.00;99.90
8778;DHT22;4425;50.872;4.712;2023-06-24T05:03:56;17.00;99.90
8778;DHT22;4425;50.872;4.712;2023-06-24T05:06:23;17.00;99.90
8778;DHT22;4425;50.872;4.712;2023-06-24T05:08:50;17.10;99.90
8778;DHT22;4425;50.872;4.712;2023-06-24T05:11:17;17.20;99.90
8778;DHT22;4425;50.872;4.712;2023-06-24T05:13:45;17.20;99.90
8778;DHT22;4425;50.872;4.712;2023-06-24T05:16:12;17.20;99.90
8778;DHT22;4425;50.872;4.712;2023-06-24T05:18:38;17.30;99.90
8778;DHT22;4425;50.872;4.712;2023-06-24T05:21:05;17.30;99.90
8778;DHT22;4425;50.872;4.712;2023-06-24T05:23:32;17.40;99.90
8778;DHT22;4425;50.872;4.712;2023-06-24T05:25:59;17.40;99.90
8778;DHT22;4425;50.872;4.712;2023-06-24T05:28:26;17.40;99.90
8778;DHT22;4425;50.872;4.712;2023-06-24T05:30:54;17.40;99.90
8778;DHT22;4425;50.872;4.712;2023-06-24T05:33:22;17.50;99.90
8778;DHT22;4425;50.872;4.712;2023-06-24T05:35:49;17.60;99.90
8778;DHT22;4425;50.872;4.712;2023-06-24T05:38:16;17.60;99.90
8778;DHT22;4425;50.872;4.712;2023-06-24T05:40:43;17.70;99.90
8778;DHT22;4425;50.872;4.712;2023-06-24T05:43:10;17.70;99.90
8778;DHT22;4425;50.872;4.712;2023-06-24T05:45:37;17.80;99.90
8778;DHT22;4425;50.872;4.712;2023-06-24T05:48:06;17.90;99.90
8778;DHT22;4425;50.872;4.712;2023-06-24T05:50:32;18.00;99.90
8778;DHT22;4425;50.872;4.712;2023-06-24T05:52:59;18.10;99.90
8778;DHT22;4425;50.872;4.712;2023-06-24T05:55:26;18.20;99.90
8778;DHT22;4425;50.872;4.712;2023-06-24T05:57:53;18.40;99.90
8778;DHT22;4425;50.872;4.712;2023-06-24T06:00:20;19.60;99.90
8778;DHT22;4425;50.872;4.712;2023-06-24T06:02:47;21.40;99.90
8778;DHT22;4425;50.872;4.712;2023-06-24T06:05:15;23.10;99.90
8778;DHT22;4425;50.872;4.712;2023-06-24T06:07:42;24.70;99.90
8778;DHT22;4425;50.872;4.712;2023-06-24T06:10:09;25.20;99.90
8778;DHT22;4425;50.872;4.712;2023-06-24T06:12:36;24.70;99.90
8778;DHT22;4425;50.872;4.712;2023-06-24T06:15:04;23.90;99.90
8778;DHT22;4425;50.872;4.712;2023-06-24T06:17:32;23.40;99.90
8778;DHT22;4425;50.872;4.712;2023-06-24T06:19:59;23.40;99.90
8778;DHT22;4425;50.872;4.712;2023-06-24T06:22:27;23.80;99.90
8778;DHT22;4425;50.872;4.712;2023-06-24T06:24:54;25.00;99.90
8778;DHT22;4425;50.872;4.712;2023-06-24T06:27:21;26.00;99.90
8778;DHT22;4425;50.872;4.712;2023-06-24T06:29:47;27.30;99.90
8778;DHT22;4425;50.872;4.712;2023-06-24T06:32:14;28.40;99.90
8778;DHT22;4425;50.872;4.712;2023-06-24T06:34:41;29.30;99.90
8778;DHT22;4425;50.872;4.712;2023-06-24T06:37:08;30.00;99.00
8778;DHT22;4425;50.872;4.712;2023-06-24T06:39:36;30.40;98.40
8778;DHT22;4425;50.872;4.712;2023-06-24T06:42:03;30.90;97.90
8778;DHT22;4425;50.872;4.712;2023-06-24T06:44:30;31.30;96.90
8778;DHT22;4425;50.872;4.712;2023-06-24T06:46:57;31.40;96.20
8778;DHT22;4425;50.872;4.712;2023-06-24T06:49:24;31.10;96.80
8778;DHT22;4425;50.872;4.712;2023-06-24T06:51:53;31.20;96.20
8778;DHT22;4425;50.872;4.712;2023-06-24T06:54:20;31.60;95.80
8778;DHT22;4425;50.872;4.712;2023-06-24T06:56:49;31.50;95.30
8778;DHT22;4425;50.872;4.712;2023-06-24T06:59:15;30.80;96.30
8778;DHT22;4425;50.872;4.712;2023-06-24T07:01:43;31.50;95.90
8778;DHT22;4425;50.872;4.712;2023-06-24T07:04:10;32.00;94.90
8778;DHT22;4425;50.872;4.712;2023-06-24T07:06:37;32.40;95.00
8778;DHT22;4425;50.872;4.712;2023-06-24T07:09:04;33.00;94.20
8778;DHT22;4425;50.872;4.712;2023-06-24T07:11:31;33.40;93.50
8778;DHT22;4425;50.872;4.712;2023-06-24T07:14:01;33.80;93.40
8778;DHT22;4425;50.872;4.712;2023-06-24T07:16:36;33.50;92.80
8778;DHT22;4425;50.872;4.712;2023-06-24T07:19:03;32.90;93.50
8778;DHT22;4425;50.872;4.712;2023-06-24T07:21:30;32.90;93.80
8778;DHT22;4425;50.872;4.712;2023-06-24T07:23:56;33.60;93.40
8778;DHT22;4425;50.872;4.712;2023-06-24T07:26:23;34.00;92.70
8778;DHT22;4425;50.872;4.712;2023-06-24T07:28:50;33.80;91.70
8778;DHT22;4425;50.872;4.712;2023-06-24T07:31:18;34.20;92.10
8778;DHT22;4425;50.872;4.712;2023-06-24T07:33:45;34.50;91.30
8778;DHT22;4425;50.872;4.712;2023-06-24T07:36:12;34.70;91.20
8778;DHT22;4425;50.872;4.712;2023-06-24T07:38:40;34.90;90.60
8778;DHT22;4425;50.872;4.712;2023-06-24T07:41:07;35.40;90.20
8778;DHT22;4425;50.872;4.712;2023-06-24T07:43:33;35.30;89.60
8778;DHT22;4425;50.872;4.712;2023-06-24T07:46:00;34.80;90.20
8778;DHT22;4425;50.872;4.712;2023-06-24T07:48:29;34.70;90.00
8778;DHT22;4425;50.872;4.712;2023-06-24T07:50:55;35.20;90.00
8778;DHT22;4425;50.872;4.712;2023-06-24T07:53:22;35.10;87.70
8778;DHT22;4425;50.872;4.712;2023-06-24T07:55:49;34.90;87.70
8778;DHT22;4425;50.872;4.712;2023-06-24T07:58:16;34.70;87.10
8778;DHT22;4425;50.872;4.712;2023-06-24T08:00:44;34.40;86.40
8778;DHT22;4425;50.872;4.712;2023-06-24T08:03:12;33.60;86.70
8778;DHT22;4425;50.872;4.712;2023-06-24T08:05:41;33.50;88.50
8778;DHT22;4425;50.872;4.712;2023-06-24T08:08:08;34.00;87.40
8778;DHT22;4425;50.872;4.712;2023-06-24T08:10:35;33.90;87.00
8778;DHT22;4425;50.872;4.712;2023-06-24T08:13:02;34.40;86.20
8778;DHT22;4425;50.872;4.712;2023-06-24T08:15:29;33.90;85.90
8778;DHT22;4425;50.872;4.712;2023-06-24T08:17:56;33.20;86.70
8778;DHT22;4425;50.872;4.712;2023-06-24T08:20:23;32.80;86.60
8778;DHT22;4425;50.872;4.712;2023-06-24T08:22:52;32.90;87.30
8778;DHT22;4425;50.872;4.712;2023-06-24T08:25:18;33.30;85.70
8778;DHT22;4425;50.872;4.712;2023-06-24T08:27:45;33.60;86.80
8778;DHT22;4425;50.872;4.712;2023-06-24T08:30:13;34.10;84.00
8778;DHT22;4425;50.872;4.712;2023-06-24T08:32:40;35.10;83.00
8778;DHT22;4425;50.872;4.712;2023-06-24T08:35:08;35.10;81.20
8778;DHT22;4425;50.872;4.712;2023-06-24T08:37:36;34.80;81.90
8778;DHT22;4425;50.872;4.712;2023-06-24T08:40:05;35.70;81.00
8778;DHT22;4425;50.872;4.712;2023-06-24T08:42:32;36.20;77.90
8778;DHT22;4425;50.872;4.712;2023-06-24T08:45:00;35.90;75.80
8778;DHT22;4425;50.872;4.712;2023-06-24T08:47:28;34.90;77.00
8778;DHT22;4425;50.872;4.712;2023-06-24T08:50:01;34.90;75.70
8778;DHT22;4425;50.872;4.712;2023-06-24T08:52:31;35.30;75.00
8778;DHT22;4425;50.872;4.712;2023-06-24T08:54:59;34.90;74.30
8778;DHT22;4425;50.872;4.712;2023-06-24T08:57:29;34.80;75.70
8778;DHT22;4425;50.872;4.712;2023-06-24T08:59:55;35.10;75.30
8778;DHT22;4425;50.872;4.712;2023-06-24T09:02:23;35.20;75.40
8778;DHT22;4425;50.872;4.712;2023-06-24T09:04:50;35.50;75.00
8778;DHT22;4425;50.872;4.712;2023-06-24T09:07:25;36.00;73.20
8778;DHT22;4425;50.872;4.712;2023-06-24T09:09:53;36.00;71.50
8778;DHT22;4425;50.872;4.712;2023-06-24T09:12:20;35.70;72.00
8778;DHT22;4425;50.872;4.712;2023-06-24T09:14:52;35.70;72.30
8778;DHT22;4425;50.872;4.712;2023-06-24T09:17:19;35.00;73.20
8778;DHT22;4425;50.872;4.712;2023-06-24T09:19:48;34.50;73.50
8778;DHT22;4425;50.872;4.712;2023-06-24T09:22:15;34.30;73.00
8778;DHT22;4425;50.872;4.712;2023-06-24T09:24:44;33.80;73.30
8778;DHT22;4425;50.872;4.712;2023-06-24T09:27:12;33.30;74.70
8778;DHT22;4425;50.872;4.712;2023-06-24T09:29:41;33.20;74.30
8778;DHT22;4425;50.872;4.712;2023-06-24T09:32:10;32.50;76.30
8778;DHT22;4425;50.872;4.712;2023-06-24T09:34:37;31.10;79.10
8778;DHT22;4425;50.872;4.712;2023-06-24T09:37:05;29.90;82.20
8778;DHT22;4425;50.872;4.712;2023-06-24T09:39:36;29.10;84.80
8778;DHT22;4425;50.872;4.712;2023-06-24T09:42:05;28.50;84.40
8778;DHT22;4425;50.872;4.712;2023-06-24T09:44:32;28.30;85.40
8778;DHT22;4425;50.872;4.712;2023-06-24T09:46:59;28.20;83.80
8778;DHT22;4425;50.872;4.712;2023-06-24T09:49:28;28.10;85.50
8778;DHT22;4425;50.872;4.712;2023-06-24T09:51:56;28.10;84.80
8778;DHT22;4425;50.872;4.712;2023-06-24T09:54:26;27.90;85.70
8778;DHT22;4425;50.872;4.712;2023-06-24T09:56:56;27.90;85.60
8778;DHT22;4425;50.872;4.712;2023-06-24T09:59:27;27.70;87.30
8778;DHT22;4425;50.872;4.712;2023-06-24T10:01:55;27.40;87.40
8778;DHT22;4425;50.872;4.712;2023-06-24T10:04:23;27.40;87.70
8778;DHT22;4425;50.872;4.712;2023-06-24T10:06:52;27.50;88.00
8778;DHT22;4425;50.872;4.712;2023-06-24T10:09:20;27.40;86.50
8778;DHT22;4425;50.872;4.712;2023-06-24T10:11:47;27.40;86.80
8778;DHT22;4425;50.872;4.712;2023-06-24T10:14:14;27.60;88.00
8778;DHT22;4425;50.872;4.712;2023-06-24T10:16:42;27.70;87.90
8778;DHT22;4425;50.872;4.712;2023-06-24T10:19:09;27.60;86.00
8778;DHT22;4425;50.872;4.712;2023-06-24T10:21:46;27.60;86.10
8778;DHT22;4425;50.872;4.712;2023-06-24T10:24:29;27.60;85.00
8778;DHT22;4425;50.872;4.712;2023-06-24T10:27:01;27.70;84.70
8778;DHT22;4425;50.872;4.712;2023-06-24T10:29:33;27.60;84.80
8778;DHT22;4425;50.872;4.712;2023-06-24T10:32:03;27.60;83.90
8778;DHT22;4425;50.872;4.712;2023-06-24T10:34:34;27.40;86.40
8778;DHT22;4425;50.872;4.712;2023-06-24T10:37:10;27.40;86.90
8778;DHT22;4425;50.872;4.712;2023-06-24T10:39:49;27.40;88.50
8778;DHT22;4425;50.872;4.712;2023-06-24T10:42:26;27.50;87.30
8778;DHT22;4425;50.872;4.712;2023-06-24T10:44:54;27.60;87.40
8778;DHT22;4425;50.872;4.712;2023-06-24T10:47:22;27.70;86.50
8778;DHT22;4425;50.872;4.712;2023-06-24T10:49:49;27.80;85.00
8778;DHT22;4425;50.872;4.712;2023-06-24T10:52:18;27.60;84.10
8778;DHT22;4425;50.872;4.712;2023-06-24T10:54:46;27.60;85.10
8778;DHT22;4425;50.872;4.712;2023-06-24T10:57:13;27.70;83.20
8778;DHT22;4425;50.872;4.712;2023-06-24T10:59:40;27.70;82.90
8778;DHT22;4425;50.872;4.712;2023-06-24T11:02:08;27.70;85.60
8778;DHT22;4425;50.872;4.712;2023-06-24T11:04:42;27.70;86.30
8778;DHT22;4425;50.872;4.712;2023-06-24T11:07:09;27.80;86.30
8778;DHT22;4425;50.872;4.712;2023-06-24T11:09:36;27.90;86.70
8778;DHT22;4425;50.872;4.712;2023-06-24T11:12:05;27.80;86.40
8778;DHT22;4425;50.872;4.712;2023-06-24T11:14:33;27.80;85.90
8778;DHT22;4425;50.872;4.712;2023-06-24T11:17:01;28.00;85.50
8778;DHT22;4425;50.872;4.712;2023-06-24T11:19:29;27.70;82.90
8778;DHT22;4425;50.872;4.712;2023-06-24T11:21:59;27.60;86.20
8778;DHT22;4425;50.872;4.712;2023-06-24T11:24:26;27.70;85.00
8778;DHT22;4425;50.872;4.712;2023-06-24T11:26:53;27.80;84.10
8778;DHT22;4425;50.872;4.712;2023-06-24T11:29:22;27.90;83.90
8778;DHT22;4425;50.872;4.712;2023-06-24T11:31:49;27.90;85.10
8778;DHT22;4425;50.872;4.712;2023-06-24T11:34:16;28.10;83.90
8778;DHT22;4425;50.872;4.712;2023-06-24T11:36:43;28.10;84.60
8778;DHT22;4425;50.872;4.712;2023-06-24T11:39:20;28.10;85.10
8778;DHT22;4425;50.872;4.712;2023-06-24T11:41:47;28.10;85.00
8778;DHT22;4425;50.872;4.712;2023-06-24T11:44:14;28.20;84.50
8778;DHT22;4425;50.872;4.712;2023-06-24T11:46:43;28.30;85.00
8778;DHT22;4425;50.872;4.712;2023-06-24T11:49:09;28.40;84.80
8778;DHT22;4425;50.872;4.712;2023-06-24T11:51:36;28.60;84.20
8778;DHT22;4425;50.872;4.712;2023-06-24T11:54:05;28.50;80.00
8778;DHT22;4425;50.872;4.712;2023-06-24T11:56:35;28.50;80.90
8778;DHT22;4425;50.872;4.712;2023-06-24T11:59:04;28.50;81.00
8778;DHT22;4425;50.872;4.712;2023-06-24T12:01:31;28.50;79.80
8778;DHT22;4425;50.872;4.712;2023-06-24T12:04:01;28.50;79.00
8778;DHT22;4425;50.872;4.712;2023-06-24T12:06:28;28.40;76.50
8778;DHT22;4425;50.872;4.712;2023-06-24T12:08:55;28.30;79.70
8778;DHT22;4425;50.872;4.712;2023-06-24T12:11:21;28.30;80.80
8778;DHT22;4425;50.872;4.712;2023-06-24T12:13:48;28.40;81.40
8778;DHT22;4425;50.872;4.712;2023-06-24T12:16:15;28.30;81.70
8778;DHT22;4425;50.872;4.712;2023-06-24T12:18:42;28.40;80.80
8778;DHT22;4425;50.872;4.712;2023-06-24T12:21:10;28.60;80.80
8778;DHT22;4425;50.872;4.712;2023-06-24T12:23:37;28.60;78.90
8778;DHT22;4425;50.872;4.712;2023-06-24T12:26:04;28.60;78.80
8778;DHT22;4425;50.872;4.712;2023-06-24T12:28:31;28.70;75.90
8778;DHT22;4425;50.872;4.712;2023-06-24T12:30:58;28.70;75.40
8778;DHT22;4425;50.872;4.712;2023-06-24T12:33:25;28.90;77.90
8778;DHT22;4425;50.872;4.712;2023-06-24T12:35:51;28.90;77.50
8778;DHT22;4425;50.872;4.712;2023-06-24T12:38:20;28.90;78.70
8778;DHT22;4425;50.872;4.712;2023-06-24T12:40:46;29.00;79.80
8778;DHT22;4425;50.872;4.712;2023-06-24T12:43:13;29.00;78.90
8778;DHT22;4425;50.872;4.712;2023-06-24T12:45:40;28.80;79.50
8778;DHT22;4425;50.872;4.712;2023-06-24T12:48:08;28.90;80.60
8778;DHT22;4425;50.872;4.712;2023-06-24T12:50:35;29.00;81.20
8778;DHT22;4425;50.872;4.712;2023-06-24T12:53:02;29.10;80.90
8778;DHT22;4425;50.872;4.712;2023-06-24T12:55:30;29.10;80.60
8778;DHT22;4425;50.872;4.712;2023-06-24T12:57:57;28.90;79.60
8778;DHT22;4425;50.872;4.712;2023-06-24T13:00:25;28.90;80.50
8778;DHT22;4425;50.872;4.712;2023-06-24T13:02:51;29.00;81.70
8778;DHT22;4425;50.872;4.712;2023-06-24T13:05:18;29.00;80.30
8778;DHT22;4425;50.872;4.712;2023-06-24T13:07:45;29.20;79.70
8778;DHT22;4425;50.872;4.712;2023-06-24T13:10:12;29.10;79.60
8778;DHT22;4425;50.872;4.712;2023-06-24T13:12:40;29.20;80.10
8778;DHT22;4425;50.872;4.712;2023-06-24T13:15:08;29.20;79.90
8778;DHT22;4425;50.872;4.712;2023-06-24T13:17:36;29.30;79.30
8778;DHT22;4425;50.872;4.712;2023-06-24T13:20:04;29.30;79.10
8778;DHT22;4425;50.872;4.712;2023-06-24T13:22:31;29.30;78.30
8778;DHT22;4425;50.872;4.712;2023-06-24T13:24:58;29.20;78.00
8778;DHT22;4425;50.872;4.712;2023-06-24T13:27:25;29.30;78.10
8778;DHT22;4425;50.872;4.712;2023-06-24T13:29:53;29.50;78.80
8778;DHT22;4425;50.872;4.712;2023-06-24T13:32:20;29.60;78.50
8778;DHT22;4425;50.872;4.712;2023-06-24T13:34:46;29.50;76.50
8778;DHT22;4425;50.872;4.712;2023-06-24T13:37:14;29.50;77.20
8778;DHT22;4425;50.872;4.712;2023-06-24T13:39:41;29.50;76.70
8778;DHT22;4425;50.872;4.712;2023-06-24T13:42:08;29.50;76.30
8778;DHT22;4425;50.872;4.712;2023-06-24T13:44:35;29.50;76.40
8778;DHT22;4425;50.872;4.712;2023-06-24T13:47:03;29.60;75.20
8778;DHT22;4425;50.872;4.712;2023-06-24T13:49:30;29.60;75.50
8778;DHT22;4425;50.872;4.712;2023-06-24T13:51:57;29.50;76.00
8778;DHT22;4425;50.872;4.712;2023-06-24T13:54:24;29.50;75.50
8778;DHT22;4425;50.872;4.712;2023-06-24T13:56:51;29.50;75.80
8778;DHT22;4425;50.872;4.712;2023-06-24T13:59:17;29.30;76.40
8778;DHT22;4425;50.872;4.712;2023-06-24T14:01:44;29.20;76.40
8778;DHT22;4425;50.872;4.712;2023-06-24T14:04:12;29.30;76.70
8778;DHT22;4425;50.872;4.712;2023-06-24T14:06:39;29.30;76.60
8778;DHT22;4425;50.872;4.712;2023-06-24T14:09:06;29.40;76.10
8778;DHT22;4425;50.872;4.712;2023-06-24T14:11:33;29.50;76.40
8778;DHT22;4425;50.872;4.712;2023-06-24T14:14:00;29.50;75.50
8778;DHT22;4425;50.872;4.712;2023-06-24T14:16:27;29.70;75.10
8778;DHT22;4425;50.872;4.712;2023-06-24T14:18:54;29.70;76.00
8778;DHT22;4425;50.872;4.712;2023-06-24T14:21:22;29.60;77.50
8778;DHT22;4425;50.872;4.712;2023-06-24T14:23:49;29.30;76.60
8778;DHT22;4425;50.872;4.712;2023-06-24T14:26:16;29.40;77.50
8778;DHT22;4425;50.872;4.712;2023-06-24T14:28:44;29.40;76.10
8778;DHT22;4425;50.872;4.712;2023-06-24T14:31:11;29.60;75.30
8778;DHT22;4425;50.872;4.712;2023-06-24T14:33:40;29.30;74.90
8778;DHT22;4425;50.872;4.712;2023-06-24T14:36:06;29.20;74.30
8778;DHT22;4425;50.872;4.712;2023-06-24T14:38:35;29.40;75.80
8778;DHT22;4425;50.872;4.712;2023-06-24T14:41:02;29.60;75.10
8778;DHT22;4425;50.872;4.712;2023-06-24T14:43:28;29.60;74.20
8778;DHT22;4425;50.872;4.712;2023-06-24T14:45:55;29.60;73.80
8778;DHT22;4425;50.872;4.712;2023-06-24T14:48:23;29.50;73.60
8778;DHT22;4425;50.872;4.712;2023-06-24T14:50:50;29.60;74.60
8778;DHT22;4425;50.872;4.712;2023-06-24T14:53:17;29.80;75.20
8778;DHT22;4425;50.872;4.712;2023-06-24T14:55:46;29.80;74.80
8778;DHT22;4425;50.872;4.712;2023-06-24T14:58:13;29.70;75.90
8778;DHT22;4425;50.872;4.712;2023-06-24T15:00:40;29.90;76.20
8778;DHT22;4425;50.872;4.712;2023-06-24T15:03:07;29.90;74.40
8778;DHT22;4425;50.872;4.712;2023-06-24T15:05:34;29.90;74.30
8778;DHT22;4425;50.872;4.712;2023-06-24T15:08:01;29.90;73.90
8778;DHT22;4425;50.872;4.712;2023-06-24T15:10:28;30.10;74.90
8778;DHT22;4425;50.872;4.712;2023-06-24T15:12:56;30.20;74.70
8778;DHT22;4425;50.872;4.712;2023-06-24T15:15:23;30.20;76.00
8778;DHT22;4425;50.872;4.712;2023-06-24T15:17:50;30.00;75.70
8778;DHT22;4425;50.872;4.712;2023-06-24T15:20:17;29.90;74.80
8778;DHT22;4425;50.872;4.712;2023-06-24T15:22:47;30.00;75.30
8778;DHT22;4425;50.872;4.712;2023-06-24T15:25:14;29.90;74.40
8778;DHT22;4425;50.872;4.712;2023-06-24T15:27:41;29.80;75.10
8778;DHT22;4425;50.872;4.712;2023-06-24T15:30:09;29.70;76.10
8778;DHT22;4425;50.872;4.712;2023-06-24T15:32:36;29.60;75.00
8778;DHT22;4425;50.872;4.712;2023-06-24T15:35:04;29.60;74.90
8778;DHT22;4425;50.872;4.712;2023-06-24T15:37:31;29.60;75.40
8778;DHT22;4425;50.872;4.712;2023-06-24T15:39:58;29.70;75.00
8778;DHT22;4425;50.872;4.712;2023-06-24T15:42:25;29.70;79.30
8778;DHT22;4425;50.872;4.712;2023-06-24T15:44:52;29.60;80.20
8778;DHT22;4425;50.872;4.712;2023-06-24T15:47:20;29.80;80.90
8778;DHT22;4425;50.872;4.712;2023-06-24T15:49:47;29.70;81.70
8778;DHT22;4425;50.872;4.712;2023-06-24T15:52:14;29.40;82.40
8778;DHT22;4425;50.872;4.712;2023-06-24T15:54:40;29.40;82.60
8778;DHT22;4425;50.872;4.712;2023-06-24T15:57:07;29.30;82.40
8778;DHT22;4425;50.872;4.712;2023-06-24T15:59:34;29.40;81.20
8778;DHT22;4425;50.872;4.712;2023-06-24T16:02:01;29.30;80.10
8778;DHT22;4425;50.872;4.712;2023-06-24T16:04:29;29.50;80.30
8778;DHT22;4425;50.872;4.712;2023-06-24T16:06:57;29.60;79.90